Time;durP1;ratioP1;P1;durP2;ratioP2;P2;SDS_P1;SDS_P2;PMS_P1;PMS_P2;Temp;Humidity;BMP_temperature;BMP_pressure;BME280_temperature;BME280_humidity;BME280_pressure;Samples;Min_cycle;Max_cycle;Signal;HPM_P1;HPM_P2
2023/10/28 00:01:30;;;;;;;2.80;2.40;;;9.90;94.10;;;9.42;97.67;96316.59;4969989;28;20449;-83
2023/10/28 00:03:57;;;;;;;2.50;2.10;;;10.00;93.40;;;9.42;97.41;96322.84;4973120;28;20929;-81
2023/10/28 00:06:25;;;;;;;3.90;2.13;;;10.00;93.20;;;9.50;97.23;96326.97;4953445;28;20543;-82
2023/10/28 00:08:54;;;;;;;3.17;2.20;;;10.00;93.30;;;9.52;97.47;96334.78;4969329;28;20461;-79
2023/10/28 00:11:21;;;;;;;2.70;2.50;;;10.00;93.40;;;9.60;97.58;96350.53;4966180;28;20464;-82
2023/10/28 00:13:48;;;;;;;3.43;2.30;;;10.10;93.80;;;9.59;98.75;96344.31;4971716;28;20480;-81
2023/10/28 00:16:15;;;;;;;2.60;2.40;;;10.10;94.00;;;9.45;99.10;96319.63;4960235;28;20459;-81
2023/10/28 00:18:43;;;;;;;6.30;2.70;;;10.10;94.00;;;9.41;99.21;96350.03;4969088;28;20516;-85
2023/10/28 00:21:11;;;;;;;2.00;1.83;;;10.00;93.80;;;9.40;100.00;96353.78;4962101;28;20852;-83
2023/10/28 00:23:38;;;;;;;2.90;2.10;;;10.00;94.10;;;9.39;99.97;96352.16;4982205;28;20464;-81
2023/10/28 00:26:08;;;;;;;2.47;2.00;;;10.00;94.50;;;9.16;100.00;96333.25;4971696;28;20458;-79
2023/10/28 00:28:35;;;;;;;5.70;2.20;;;10.00;94.90;;;9.22;100.00;96353.00;4982703;28;20456;-84
2023/10/28 00:31:02;;;;;;;3.00;2.07;;;9.90;95.60;;;8.73;100.00;96284.41;4952603;28;21009;-83
2023/10/28 00:33:29;;;;;;;2.90;1.60;;;9.90;95.70;;;9.27;100.00;96371.94;4953667;28;20841;-79
2023/10/28 00:35:56;;;;;;;2.40;1.37;;;9.90;95.80;;;9.16;100.00;96362.06;4969388;28;20449;-81
2023/10/28 00:38:24;;;;;;;2.00;1.40;;;9.90;95.80;;;9.25;100.00;96374.06;4968657;28;21104;-83
2023/10/28 00:40:52;;;;;;;4.33;1.60;;;9.90;96.40;;;9.15;100.00;96363.94;4970326;28;20456;-85
2023/10/28 00:43:24;;;;;;;3.40;1.43;;;9.90;96.20;;;9.08;100.00;96365.97;4969281;28;20450;-81
2023/10/28 00:45:54;;;;;;;1.90;1.50;;;9.80;96.40;;;8.94;100.00;96341.28;4959837;28;20541;-84
2023/10/28 00:48:21;;;;;;;3.53;1.73;;;9.80;96.70;;;9.04;100.00;96363.00;4982323;28;20460;-84
2023/10/28 00:50:49;;;;;;;2.93;1.40;;;9.70;97.50;;;9.15;100.00;96374.72;4955084;28;20446;-82
2023/10/28 00:53:17;;;;;;;4.30;1.83;;;9.80;97.90;;;9.09;100.00;96369.50;4964451;28;21088;-83
2023/10/28 00:55:44;;;;;;;1.43;1.33;;;9.70;98.00;;;8.96;100.00;96376.84;4968759;28;20464;-83
2023/10/28 00:58:11;;;;;;;3.50;1.50;;;9.70;98.20;;;9.04;100.00;96372.94;4953969;28;20461;-78
2023/10/28 01:00:40;;;;;;;2.43;2.00;;;9.70;98.40;;;9.09;100.00;96367.63;4960851;28;21077;-87
2023/10/28 01:03:09;;;;;;;1.60;1.43;;;9.70;99.00;;;8.83;100.00;96313.38;4963710;28;20461;-86
2023/10/28 01:05:37;;;;;;;1.70;1.57;;;9.70;98.70;;;9.06;100.00;96366.25;4963687;28;20589;-84
2023/10/28 01:08:04;;;;;;;1.70;1.60;;;9.80;97.80;;;8.62;100.00;96296.09;4963569;28;20461;-79
2023/10/28 01:10:35;;;;;;;3.60;1.50;;;9.70;97.60;;;9.13;100.00;96362.56;4966018;28;20468;-82
2023/10/28 01:13:04;;;;;;;1.73;1.30;;;9.80;98.00;;;9.05;100.00;96364.63;4975582;28;20464;-83
2023/10/28 01:15:31;;;;;;;2.30;1.50;;;9.80;98.20;;;8.98;100.00;96357.78;4968815;28;20475;-82
2023/10/28 01:18:00;;;;;;;1.70;1.47;;;9.70;98.50;;;9.04;100.00;96362.16;4959708;28;20457;-84
2023/10/28 01:20:27;;;;;;;3.63;2.17;;;9.70;98.30;;;9.12;100.00;96369.00;4967552;28;20507;-80
2023/10/28 01:22:57;;;;;;;2.50;2.07;;;9.70;98.20;;;9.15;100.00;96365.81;4962457;28;20564;-83
2023/10/28 01:25:25;;;;;;;1.40;1.30;;;9.70;97.80;;;9.26;100.00;96375.69;4976583;28;20456;-83
2023/10/28 01:27:53;;;;;;;2.10;1.80;;;9.80;98.30;;;9.25;100.00;96374.06;4950430;28;20450;-79
2023/10/28 01:30:20;;;;;;;3.37;2.30;;;9.80;99.00;;;9.29;100.00;96369.81;4967345;28;20465;-83
2023/10/28 01:32:47;;;;;;;2.40;2.07;;;9.90;99.20;;;9.26;100.00;96380.28;4969361;28;21184;-84
2023/10/28 01:35:15;;;;;;;3.40;2.20;;;9.80;98.70;;;9.24;100.00;96367.03;4967705;28;20690;-84
2023/10/28 01:37:42;;;;;;;3.70;2.30;;;9.80;98.40;;;9.22;100.00;96369.19;4970099;28;20449;-82
2023/10/28 01:40:13;;;;;;;2.50;2.13;;;9.80;98.60;;;9.20;100.00;96374.00;4953387;28;21337;-85
2023/10/28 01:42:41;;;;;;;3.00;2.23;;;9.80;98.70;;;9.23;100.00;96369.97;4948391;28;20870;-85
2023/10/28 01:45:10;;;;;;;4.10;2.20;;;9.80;98.90;;;8.92;100.00;96321.84;4972464;28;20469;-80
2023/10/28 01:47:38;;;;;;;3.90;1.80;;;9.80;99.20;;;9.02;100.00;96351.66;4950323;28;20898;-85
2023/10/28 01:50:07;;;;;;;5.70;2.33;;;9.80;98.50;;;9.09;100.00;96364.13;4967563;28;20446;-86
2023/10/28 01:52:35;;;;;;;3.67;1.90;;;9.80;99.00;;;9.11;100.00;96365.53;4952024;28;20454;-84
2023/10/28 01:55:03;;;;;;;2.80;2.50;;;9.80;99.40;;;9.17;100.00;96366.38;4965641;28;20484;-83
2023/10/28 01:57:31;;;;;;;4.33;2.57;;;9.80;99.60;;;9.21;100.00;96365.66;4963667;28;20489;-86
2023/10/28 02:00:04;;;;;;;2.43;1.90;;;9.80;99.60;;;8.65;100.00;96295.59;4967049;28;21150;-84
2023/10/28 02:02:31;;;;;;;2.80;1.73;;;9.80;99.20;;;9.06;100.00;96371.63;4979927;28;20826;-80
2023/10/28 02:04:59;;;;;;;2.40;1.63;;;9.80;98.30;;;9.16;100.00;96380.91;4953626;28;20462;-83
2023/10/28 02:07:26;;;;;;;1.40;1.30;;;9.80;98.00;;;9.04;100.00;96367.56;4954388;28;20535;-84
2023/10/28 02:09:53;;;;;;;1.80;1.63;;;9.80;98.20;;;8.98;100.00;96339.72;4968885;28;20800;-85
2023/10/28 02:12:20;;;;;;;2.33;1.40;;;9.80;98.20;;;9.14;100.00;96388.44;4968854;28;20457;-86
2023/10/28 02:14:50;;;;;;;3.13;1.43;;;9.80;97.30;;;9.26;100.00;96386.47;4958931;28;20547;-84
2023/10/28 02:17:18;;;;;;;2.47;1.00;;;9.80;97.50;;;9.30;100.00;96393.00;4972178;28;20465;-81
2023/10/28 02:19:46;;;;;;;1.30;1.20;;;9.80;96.90;;;9.35;100.00;96379.63;4957952;28;20454;-82
2023/10/28 02:22:13;;;;;;;1.97;1.20;;;9.90;96.60;;;9.31;100.00;96383.84;4967604;28;20461;-83
2023/10/28 02:24:42;;;;;;;2.00;1.60;;;9.90;96.50;;;9.26;100.00;96380.28;4962280;28;20457;-87
2023/10/28 02:27:10;;;;;;;6.03;1.50;;;9.90;97.10;;;9.20;100.00;96390.16;4968153;28;20481;-85
2023/10/28 02:29:38;;;;;;;2.30;1.70;;;9.90;96.50;;;9.27;100.00;96393.50;4984524;28;20472;-85
2023/10/28 02:32:09;;;;;;;3.13;1.60;;;9.90;96.70;;;9.25;100.00;96384.84;4978701;28;20536;-84
2023/10/28 02:34:37;;;;;;;3.57;2.27;;;9.90;96.20;;;9.27;100.00;96395.38;4957560;28;20846;-87
2023/10/28 02:37:05;;;;;;;1.60;1.50;;;9.90;96.30;;;9.31;100.00;96394.63;4953347;28;20446;-81
2023/10/28 02:39:32;;;;;;;1.80;1.43;;;9.90;96.40;;;9.32;100.00;96395.44;4968370;28;20541;-86
2023/10/28 02:42:00;;;;;;;1.90;1.50;;;9.90;96.70;;;9.19;100.00;96383.16;4966560;28;20488;-85
2023/10/28 02:44:27;;;;;;;2.30;1.27;;;9.90;95.90;;;9.26;100.00;96405.34;4972185;28;20471;-84
2023/10/28 02:46:54;;;;;;;4.50;1.10;;;9.90;96.50;;;9.15;100.00;96401.69;4969072;28;20470;-82
2023/10/28 02:49:23;;;;;;;1.10;1.00;;;9.90;95.60;;;9.28;100.00;96392.44;4970876;28;20465;-84
2023/10/28 02:51:50;;;;;;;2.23;1.00;;;9.90;95.80;;;9.15;100.00;96390.06;4958266;28;20460;-84
2023/10/28 02:54:18;;;;;;;1.23;1.00;;;9.90;95.40;;;9.17;100.00;96387.94;4951637;28;20477;-86
2023/10/28 02:56:46;;;;;;;1.13;1.03;;;9.90;95.40;;;9.31;100.00;96412.69;4941206;28;20448;-86
2023/10/28 02:59:13;;;;;;;2.43;1.00;;;9.90;95.50;;;9.39;100.00;96403.38;4969584;28;20466;-86
2023/10/28 03:01:40;;;;;;;2.10;1.10;;;9.90;95.50;;;9.29;100.00;96406.72;4969582;28;20635;-85
2023/10/28 03:04:08;;;;;;;1.30;1.13;;;9.90;94.90;;;9.20;100.00;96409.03;4970822;28;20453;-87
2023/10/28 03:06:36;;;;;;;3.20;0.90;;;9.90;94.70;;;9.21;100.00;96408.75;4939114;28;20465;-84
2023/10/28 03:09:04;;;;;;;1.50;0.77;;;9.90;95.10;;;8.03;100.00;96240.72;4969843;28;20485;-79
2023/10/28 03:11:31;;;;;;;1.63;1.20;;;9.90;95.00;;;9.13;100.00;96409.19;4981039;28;20464;-83
2023/10/28 03:13:58;;;;;;;1.50;1.40;;;9.80;95.10;;;9.07;100.00;96411.00;4969494;28;21100;-82
2023/10/28 03:16:26;;;;;;;1.67;1.40;;;9.80;95.20;;;9.07;100.00;96411.00;4972691;28;20458;-86
2023/10/28 03:18:53;;;;;;;1.03;0.90;;;9.80;95.30;;;9.02;100.00;96402.84;4971980;28;21223;-83
2023/10/28 03:21:21;;;;;;;1.00;0.90;;;9.80;95.40;;;9.30;100.00;96414.56;4973923;28;20930;-82
2023/10/28 03:23:50;;;;;;;2.27;1.10;;;9.90;95.10;;;9.27;100.00;96412.34;4982294;28;20489;-85
2023/10/28 03:26:17;;;;;;;3.27;0.97;;;9.90;95.00;;;9.29;99.83;96404.03;4955956;28;20469;-83
2023/10/28 03:28:44;;;;;;;1.17;1.07;;;9.90;94.80;;;9.47;98.69;96411.03;4959449;28;20449;-85
2023/10/28 03:31:14;;;;;;;1.43;1.17;;;9.90;94.50;;;9.40;98.76;96413.91;4974851;28;20464;-83
2023/10/28 03:33:42;;;;;;;0.97;0.80;;;10.00;93.60;;;9.50;97.88;96410.53;4973259;28;20550;-84
2023/10/28 03:36:10;;;;;;;1.10;1.00;;;10.00;93.30;;;9.45;98.03;96410.44;4979816;28;20958;-85
2023/10/28 03:38:37;;;;;;;1.83;0.90;;;10.00;93.00;;;9.45;97.24;96416.69;4979264;28;20814;-86
2023/10/28 03:41:08;;;;;;;6.60;0.87;;;10.10;92.70;;;9.54;96.79;96413.53;4962915;28;20536;-85
2023/10/28 03:43:37;;;;;;;1.63;0.77;;;10.10;92.80;;;9.37;97.01;96432.44;4954898;28;20457;-86
2023/10/28 03:46:05;;;;;;;4.30;0.80;;;10.10;92.20;;;9.39;97.53;96438.41;4959966;28;20450;-85
2023/10/28 03:48:33;;;;;;;4.17;1.13;;;10.00;92.60;;;9.39;97.67;96428.44;4975774;28;20517;-83
2023/10/28 03:51:04;;;;;;;1.97;0.93;;;10.00;92.50;;;9.29;97.97;96414.81;4960849;28;20564;-85
2023/10/28 03:53:31;;;;;;;1.43;0.63;;;10.10;92.60;;;9.33;99.18;96432.13;4958573;28;20452;-85
2023/10/28 03:55:59;;;;;;;5.60;0.73;;;10.00;93.00;;;9.37;98.62;96429.75;4957406;28;20782;-86
2023/10/28 03:58:27;;;;;;;1.20;1.10;;;10.00;93.20;;;9.24;99.47;96438.97;4968882;28;20944;-83
2023/10/28 04:00:55;;;;;;;1.00;0.90;;;10.00;93.40;;;9.15;99.75;96433.19;4968577;28;20461;-81
2023/10/28 04:03:24;;;;;;;0.93;0.60;;;9.90;93.80;;;8.83;99.13;96388.78;4968989;28;20476;-85
2023/10/28 04:05:53;;;;;;;1.40;0.73;;;9.90;93.80;;;9.15;98.48;96433.19;4954846;28;20499;-83
2023/10/28 04:08:20;;;;;;;1.30;0.80;;;9.90;93.30;;;9.28;98.04;96451.72;4962860;28;20544;-83
2023/10/28 04:10:48;;;;;;;3.10;0.87;;;9.90;93.30;;;9.34;98.44;96450.75;4954409;28;20827;-84
2023/10/28 04:13:15;;;;;;;1.30;0.80;;;10.00;92.90;;;9.37;97.91;96443.22;4957486;28;20442;-86
2023/10/28 04:15:46;;;;;;;0.97;0.70;;;10.00;92.80;;;9.22;98.82;96450.03;4961437;28;20569;-84
2023/10/28 04:18:13;;;;;;;1.70;0.80;;;9.90;93.70;;;9.40;98.75;96450.81;4950645;28;20621;-87
2023/10/28 04:20:40;;;;;;;1.37;0.80;;;10.00;93.20;;;9.28;99.09;96454.41;4976444;28;20994;-81
2023/10/28 04:23:08;;;;;;;1.30;1.00;;;9.90;93.70;;;9.28;98.74;96464.41;4994479;28;20517;-84
2023/10/28 04:25:36;;;;;;;1.20;0.80;;;9.90;93.90;;;9.30;98.68;96457.69;4957483;28;20779;-85
2023/10/28 04:28:03;;;;;;;1.33;1.23;;;10.00;93.40;;;9.27;99.04;96460.88;4961720;28;20537;-84
2023/10/28 04:30:31;;;;;;;1.73;0.80;;;9.90;94.00;;;9.41;98.76;96474.03;4969683;28;20485;-84
2023/10/28 04:33:00;;;;;;;1.33;0.73;;;9.90;93.80;;;9.38;97.49;96461.03;4949094;28;20460;-83
2023/10/28 04:35:27;;;;;;;1.33;1.00;;;9.90;93.80;;;9.27;97.69;96471.66;4974855;28;20480;-83
2023/10/28 04:37:54;;;;;;;4.03;1.17;;;9.90;93.70;;;9.41;97.33;96480.25;4951536;28;20508;-84
2023/10/28 04:40:21;;;;;;;1.90;1.00;;;10.00;93.10;;;9.28;97.48;96475.97;4951507;28;20477;-85
2023/10/28 04:42:49;;;;;;;1.33;0.60;;;10.00;92.70;;;9.34;98.54;96480.41;4950544;28;20457;-82
2023/10/28 04:45:16;;;;;;;2.43;1.23;;;10.00;93.10;;;9.30;97.74;96484.63;4974015;28;20454;-86
2023/10/28 04:47:43;;;;;;;1.27;0.73;;;10.00;92.90;;;9.17;97.83;96484.94;4962569;28;20453;-81
2023/10/28 04:50:12;;;;;;;1.70;0.77;;;9.90;93.00;;;9.32;96.98;96497.88;4962161;28;20469;-83
2023/10/28 04:52:40;;;;;;;3.17;0.80;;;9.90;92.90;;;9.33;95.41;96478.78;4969079;28;20464;-83
2023/10/28 04:55:09;;;;;;;1.67;0.67;;;10.00;92.00;;;9.41;96.32;96490.19;4954577;28;20553;-83
2023/10/28 04:57:37;;;;;;;0.90;0.70;;;9.90;92.70;;;9.27;96.70;96490.50;4979409;28;20449;-83
2023/10/28 05:00:06;;;;;;;3.53;1.20;;;9.90;92.90;;;9.11;97.24;96491.31;4961107;28;20492;-82
2023/10/28 05:02:34;;;;;;;1.50;1.00;;;9.80;93.00;;;9.07;97.46;96505.28;4967161;28;20564;-81
2023/10/28 05:05:01;;;;;;;3.27;1.00;;;9.70;93.00;;;9.02;97.56;96467.50;4954042;28;20449;-82
2023/10/28 05:07:30;;;;;;;1.57;1.20;;;9.70;93.50;;;9.15;97.43;96495.16;4970951;28;20546;-85
2023/10/28 05:09:57;;;;;;;5.87;0.90;;;9.70;93.40;;;8.99;97.29;96504.88;4952704;28;20702;-86
2023/10/28 05:12:24;;;;;;;3.43;0.90;;;9.70;93.20;;;8.93;97.79;96501.25;4971547;28;20522;-85
2023/10/28 05:14:52;;;;;;;1.37;0.87;;;9.60;93.20;;;8.91;98.33;96503.38;4973279;28;20536;-83
2023/10/28 05:17:20;;;;;;;1.50;0.70;;;9.60;93.40;;;8.85;97.94;96504.31;4973825;28;20453;-82
2023/10/28 05:19:47;;;;;;;2.20;0.87;;;9.50;93.60;;;8.76;98.73;96507.44;4954964;28;20449;-85
2023/10/28 05:22:17;;;;;;;2.00;1.23;;;9.40;93.60;;;8.69;99.68;96508.63;4967487;28;20458;-82
2023/10/28 05:24:45;;;;;;;3.57;1.60;;;9.50;93.70;;;8.86;98.22;96501.41;4969243;28;20449;-82
2023/10/28 05:27:12;;;;;;;1.13;0.90;;;9.50;93.60;;;8.90;98.61;96512.53;4973609;28;20483;-83
2023/10/28 05:29:40;;;;;;;2.00;0.90;;;9.60;93.70;;;9.07;99.56;96518.75;4978829;28;20520;-80
2023/10/28 05:32:08;;;;;;;2.83;1.03;;;9.70;94.40;;;8.95;98.81;96512.59;4968599;28;20450;-79
2023/10/28 05:34:35;;;;;;;2.67;1.37;;;9.70;93.40;;;9.07;97.89;96510.66;4953277;28;20516;-80
2023/10/28 05:37:02;;;;;;;2.60;1.10;;;9.70;93.40;;;9.15;98.03;96503.22;4968893;28;20458;-80
2023/10/28 05:39:30;;;;;;;1.40;1.00;;;9.70;93.60;;;9.20;97.34;96524.91;4968762;28;20445;-83
2023/10/28 05:41:59;;;;;;;1.47;1.07;;;9.80;93.30;;;8.98;97.13;96517.50;4970167;28;20453;-79
2023/10/28 05:44:26;;;;;;;4.97;1.17;;;9.80;92.80;;;9.09;96.80;96523.88;4969398;28;20460;-81
2023/10/28 05:46:55;;;;;;;2.60;1.10;;;9.80;92.70;;;8.75;96.32;96473.47;4954331;28;21041;-79
2023/10/28 05:49:23;;;;;;;1.17;0.80;;;9.80;92.60;;;9.07;96.84;96510.66;4965838;28;20546;-81
2023/10/28 05:51:50;;;;;;;1.73;1.07;;;9.80;92.70;;;9.03;96.27;96517.63;4971315;28;21524;-80
2023/10/28 05:54:17;;;;;;;1.27;0.90;;;9.80;92.40;;;8.99;97.38;96523.72;4955681;28;20464;-81
2023/10/28 05:56:44;;;;;;;1.10;0.90;;;9.70;92.60;;;9.07;97.71;96513.38;4970230;28;20473;-79
2023/10/28 05:59:14;;;;;;;1.93;1.50;;;9.70;93.00;;;9.02;97.21;96515.16;4975872;28;20459;-78
2023/10/28 06:01:42;;;;;;;3.60;1.10;;;9.70;93.10;;;8.81;98.04;96519.34;4971388;28;20606;-78
2023/10/28 06:04:09;;;;;;;7.00;1.20;;;9.70;93.10;;;9.02;96.58;96528.63;4953719;28;20454;-79
2023/10/28 06:06:36;;;;;;;2.10;1.30;;;9.80;92.50;;;9.11;96.52;96529.88;4975315;28;20464;-79
2023/10/28 06:09:04;;;;;;;3.33;1.30;;;9.80;92.50;;;8.68;96.09;96478.19;4986681;28;20449;-81
2023/10/28 06:11:31;;;;;;;2.77;1.10;;;9.80;92.20;;;9.16;96.39;96534.50;4970783;28;20474;-82
2023/10/28 06:13:59;;;;;;;2.33;1.30;;;9.80;92.40;;;9.29;95.58;96541.50;4973355;28;20948;-82
2023/10/28 06:16:27;;;;;;;1.63;1.10;;;9.90;92.60;;;9.52;96.39;96539.69;4970952;28;20580;-77
2023/10/28 06:18:54;;;;;;;2.53;1.60;;;10.00;92.40;;;9.57;94.33;96534.41;4966307;28;20472;-77
2023/10/28 06:21:23;;;;;;;3.00;2.10;;;10.20;91.50;;;9.66;93.74;96551.00;4970241;28;20464;-79
2023/10/28 06:23:50;;;;;;;1.63;1.13;;;10.20;91.10;;;9.52;92.23;96524.34;4959051;28;20468;-83
2023/10/28 06:26:18;;;;;;;2.53;1.50;;;10.30;90.70;;;9.62;92.48;96556.84;4956696;28;20458;-81
2023/10/28 06:28:47;;;;;;;2.60;1.60;;;10.30;90.40;;;9.69;91.40;96550.50;4962371;28;20542;-79
2023/10/28 06:31:15;;;;;;;4.53;1.93;;;10.30;90.50;;;9.70;92.17;96554.81;4957268;28;20460;-78
2023/10/28 06:33:43;;;;;;;4.87;1.73;;;10.30;90.40;;;9.64;91.24;96548.53;4955233;28;20510;-77
2023/10/28 06:36:11;;;;;;;2.77;2.00;;;10.20;90.20;;;9.65;90.96;96555.53;4972286;28;20487;-78
2023/10/28 06:38:40;;;;;;;1.93;1.33;;;10.20;90.10;;;9.63;90.47;96558.50;4970873;28;20463;-78
2023/10/28 06:41:09;;;;;;;5.17;1.50;;;10.20;89.90;;;9.64;91.01;96549.34;4951909;28;20550;-76
2023/10/28 06:43:36;;;;;;;3.13;1.47;;;10.30;90.00;;;9.64;91.36;96557.44;4971984;28;20553;-78
2023/10/28 06:46:04;;;;;;;3.47;1.70;;;10.30;89.60;;;10.00;91.50;96550.94;4966350;28;20464;-77
2023/10/28 06:48:32;;;;;;;2.67;1.40;;;10.50;90.40;;;9.96;88.58;96568.72;4980586;28;20478;-76
2023/10/28 06:51:03;;;;;;;2.00;1.20;;;10.50;89.30;;;10.07;87.59;96563.19;4974529;28;20502;-78
2023/10/28 06:53:30;;;;;;;2.90;1.40;;;10.70;88.80;;;10.12;87.93;96564.34;4954006;28;20451;-78
2023/10/28 06:55:57;;;;;;;2.70;1.20;;;10.70;88.40;;;10.21;85.91;96563.66;4977601;28;20472;-76
2023/10/28 06:58:24;;;;;;;1.80;1.00;;;10.70;87.50;;;10.18;85.97;96564.16;4966714;28;20458;-77
2023/10/28 07:00:52;;;;;;;3.77;1.90;;;10.80;87.10;;;10.28;84.28;96568.88;4969066;28;20454;-75
2023/10/28 07:03:19;;;;;;;2.90;1.37;;;10.80;86.30;;;10.44;83.40;96559.16;4968466;28;20460;-82
2023/10/28 07:05:48;;;;;;;3.07;1.13;;;11.00;86.00;;;10.34;83.35;96561.66;4972364;28;20471;-82
2023/10/28 07:08:19;;;;;;;1.60;0.90;;;11.00;85.60;;;9.90;84.12;96522.75;4968847;28;20467;-81
2023/10/28 07:10:47;;;;;;;2.30;1.10;;;10.80;85.90;;;10.29;83.23;96561.59;4963453;28;20494;-82
2023/10/28 07:13:15;;;;;;;1.43;0.90;;;10.80;85.70;;;10.37;83.50;96566.56;4962962;28;20456;-73
2023/10/28 07:15:42;;;;;;;2.37;1.40;;;10.80;86.10;;;10.34;83.55;96577.88;4971267;28;20480;-71
2023/10/28 07:18:09;;;;;;;3.20;1.07;;;10.80;86.10;;;10.41;83.78;96573.16;4966758;28;20456;-70
2023/10/28 07:20:36;;;;;;;2.10;1.00;;;10.80;85.90;;;10.53;83.19;96580.28;4958159;28;20498;-72
2023/10/28 07:23:03;;;;;;;3.60;1.30;;;10.90;86.00;;;10.61;81.89;96593.38;4969291;28;20457;-71
2023/10/28 07:25:32;;;;;;;3.80;1.13;;;11.00;85.20;;;10.52;82.52;96589.47;4948958;28;20953;-70
2023/10/28 07:27:59;;;;;;;2.10;1.30;;;11.00;85.30;;;10.76;80.92;96590.03;4967246;28;20847;-71
2023/10/28 07:30:26;;;;;;;1.53;0.90;;;11.20;84.80;;;10.84;80.66;96586.06;4968430;28;20934;-74
2023/10/28 07:32:53;;;;;;;3.37;1.33;;;11.30;84.70;;;11.17;79.31;96600.53;4962224;28;20469;-71
2023/10/28 07:35:20;;;;;;;6.77;1.83;;;11.50;84.50;;;11.11;80.25;96602.34;4965029;28;20468;-72
2023/10/28 07:37:48;;;;;;;4.03;1.50;;;11.60;84.50;;;11.42;78.95;96607.25;4971920;28;20462;-71
2023/10/28 07:40:15;;;;;;;5.80;1.60;;;11.80;84.30;;;11.17;79.52;96600.53;4949162;28;20504;-72
2023/10/28 07:42:44;;;;;;;4.10;1.17;;;11.70;83.80;;;11.47;77.20;96605.41;4951972;28;20474;-70
2023/10/28 07:45:12;;;;;;;7.40;1.53;;;11.90;83.50;;;11.18;78.75;96611.06;4947688;28;20543;-71
2023/10/28 07:47:39;;;;;;;2.07;1.10;;;11.90;83.20;;;11.21;78.40;96607.03;4967513;28;20914;-70
2023/10/28 07:50:08;;;;;;;2.10;1.17;;;11.80;83.00;;;11.00;78.93;96617.63;4947519;28;20481;-71
2023/10/28 07:52:36;;;;;;;2.57;1.10;;;11.70;83.20;;;10.86;80.22;96614.47;4968014;28;20443;-71
2023/10/28 07:55:04;;;;;;;2.53;1.03;;;11.50;83.50;;;10.87;80.17;96626.13;4974546;28;20461;-71
2023/10/28 07:57:31;;;;;;;2.30;1.30;;;11.40;83.60;;;11.08;79.53;96621.78;4967317;28;20551;-71
2023/10/28 07:59:59;;;;;;;3.67;1.50;;;11.60;83.70;;;11.22;78.44;96619.50;4952064;28;20515;-71
2023/10/28 08:02:27;;;;;;;3.87;2.53;;;11.80;83.40;;;11.36;78.43;96641.53;4967284;28;20457;-72
2023/10/28 08:04:55;;;;;;;3.70;2.00;;;11.90;83.20;;;11.08;78.41;96604.72;4968298;28;20457;-71
2023/10/28 08:07:22;;;;;;;1.90;1.40;;;12.00;83.00;;;11.52;77.33;96649.78;4962753;28;20461;-71
2023/10/28 08:09:49;;;;;;;1.97;1.20;;;12.00;83.00;;;11.67;77.03;96651.84;4965533;28;20516;-74
2023/10/28 08:12:17;;;;;;;1.50;1.40;;;12.20;82.80;;;11.67;77.25;96651.84;4965861;28;20465;-74
2023/10/28 08:14:46;;;;;;;2.90;1.40;;;12.30;82.70;;;11.77;76.62;96660.88;4959006;28;20849;-71
2023/10/28 08:17:16;;;;;;;1.80;1.30;;;12.40;82.30;;;11.70;76.96;96667.56;4964907;28;20850;-70
2023/10/28 08:19:43;;;;;;;2.30;1.37;;;12.40;82.20;;;12.14;75.96;96669.34;4977729;28;20462;-70
2023/10/28 08:22:12;;;;;;;1.90;1.20;;;12.60;82.40;;;12.38;73.42;96669.81;4965512;28;20468;-71
2023/10/28 08:24:40;;;;;;;4.03;1.50;;;12.80;81.20;;;12.22;73.15;96676.19;4960629;28;20564;-70
2023/10/28 08:27:08;;;;;;;2.93;1.43;;;12.80;80.60;;;12.36;72.72;96680.09;4967341;28;20538;-70
2023/10/28 08:29:35;;;;;;;3.37;0.87;;;12.90;80.40;;;12.18;73.41;96684.00;4967102;28;20445;-71
2023/10/28 08:32:02;;;;;;;4.07;1.10;;;12.70;80.40;;;11.98;72.74;96673.78;4981760;28;20449;-70
2023/10/28 08:34:31;;;;;;;2.40;0.93;;;12.70;79.80;;;12.13;71.72;96681.22;4961770;28;20462;-70
2023/10/28 08:36:59;;;;;;;4.57;1.17;;;12.70;79.40;;;12.35;71.58;96685.75;4965494;28;20488;-71
2023/10/28 08:39:26;;;;;;;2.83;1.20;;;12.90;79.60;;;12.49;70.71;96692.34;4946598;28;20870;-70
2023/10/28 08:41:56;;;;;;;4.00;1.60;;;13.00;79.30;;;12.13;72.27;96683.94;4966998;28;20464;-72
2023/10/28 08:44:28;;;;;;;2.50;1.40;;;12.80;79.40;;;12.04;72.99;96678.19;4964179;28;20463;-71
2023/10/28 08:46:56;;;;;;;2.50;1.50;;;12.70;79.60;;;12.56;71.05;96667.75;4966898;28;21091;-72
2023/10/28 08:49:24;;;;;;;3.73;1.20;;;12.90;79.30;;;12.40;70.38;96674.94;4967243;28;20463;-73
2023/10/28 08:51:57;;;;;;;3.20;1.07;;;13.10;78.50;;;12.43;70.52;96685.25;4980401;28;20465;-72
2023/10/28 08:54:28;;;;;;;3.63;1.40;;;13.00;78.30;;;12.55;70.05;96671.53;4949910;28;20953;-74
2023/10/28 08:56:57;;;;;;;3.73;1.00;;;13.20;78.50;;;12.43;70.21;96690.66;4965908;28;20529;-79
2023/10/28 08:59:27;;;;;;;3.30;1.43;;;13.10;78.20;;;12.26;70.93;96683.50;4966520;28;20513;-68
2023/10/28 09:01:57;;;;;;;1.93;0.97;;;13.00;78.30;;;12.51;70.09;96692.06;4963842;28;20612;-67
2023/10/28 09:04:25;;;;;;;2.03;1.23;;;13.00;78.10;;;12.42;70.17;96694.44;4965123;28;20471;-68
2023/10/28 09:06:53;;;;;;;2.90;1.40;;;13.10;77.90;;;12.53;70.17;96687.22;4950873;28;20458;-69
2023/10/28 09:09:21;;;;;;;2.83;1.30;;;13.10;78.20;;;12.39;70.51;96687.69;4963575;28;20463;-72
2023/10/28 09:11:49;;;;;;;3.07;1.20;;;13.00;78.30;;;12.37;71.31;96695.25;4970847;28;20510;-69
2023/10/28 09:14:18;;;;;;;4.57;1.37;;;13.00;78.60;;;12.59;70.18;96688.88;4954571;28;20463;-83
2023/10/28 09:16:45;;;;;;;1.47;1.20;;;13.00;78.50;;;12.30;71.26;96672.97;4960748;28;20477;-69
2023/10/28 09:19:22;;;;;;;2.20;1.17;;;13.00;78.50;;;11.96;71.72;96632.63;4948355;28;20971;-68
2023/10/28 09:21:50;;;;;;;6.13;0.97;;;12.90;78.50;;;12.72;69.89;96687.59;4962468;28;20473;-68
2023/10/28 09:24:19;;;;;;;3.40;1.50;;;13.10;78.40;;;12.60;70.22;96683.22;4964980;28;20486;-71
2023/10/28 09:26:47;;;;;;;4.20;1.40;;;13.20;78.10;;;12.76;67.87;96645.38;4966289;28;20462;-86
2023/10/28 09:29:25;;;;;;;2.57;1.27;;;13.40;77.70;;;13.17;68.20;96698.97;4951594;28;20458;-68
2023/10/28 09:31:52;;;;;;;2.37;1.10;;;13.60;77.50;;;13.31;67.19;96700.09;4969071;28;20472;-69
2023/10/28 09:34:20;;;;;;;2.03;1.33;;;13.70;77.20;;;13.40;66.27;96694.97;4965680;28;20462;-69
2023/10/28 09:36:47;;;;;;;1.47;1.00;;;13.90;76.60;;;13.44;66.05;96698.81;4944506;28;20534;-69
2023/10/28 09:39:15;;;;;;;4.20;1.20;;;13.90;76.50;;;13.31;67.36;96710.97;4964478;28;20463;-68
2023/10/28 09:41:45;;;;;;;2.90;1.20;;;13.90;76.40;;;13.45;66.17;96705.06;4948592;28;20467;-65
2023/10/28 09:44:13;;;;;;;2.40;1.10;;;14.00;75.90;;;13.34;66.33;96703.38;4961291;28;20453;-66
2023/10/28 09:46:45;;;;;;;2.10;1.33;;;14.00;75.80;;;13.46;66.02;96690.44;4967057;28;20889;-79
2023/10/28 09:49:15;;;;;;;1.97;1.10;;;14.00;75.80;;;13.82;65.44;96704.06;4947969;28;20477;-82
2023/10/28 09:51:44;;;;;;;7.00;1.57;;;14.20;75.70;;;13.75;65.37;96708.97;4949924;28;20511;-70
2023/10/28 09:54:19;;;;;;;5.13;1.50;;;14.20;75.30;;;13.62;65.03;96695.91;4946615;28;20526;-69
2023/10/28 09:56:49;;;;;;;3.90;1.70;;;14.10;74.70;;;13.32;65.97;96690.06;4950338;28;20483;-68
2023/10/28 09:59:20;;;;;;;1.80;1.50;;;14.00;75.10;;;13.14;67.04;96681.31;4961720;28;20463;-70
2023/10/28 10:02:11;;;;;;;3.73;1.60;;;13.90;75.50;;;13.38;65.77;96696.31;4961374;28;20477;-71
2023/10/28 10:04:47;;;;;;;2.23;1.37;;;13.80;75.20;;;13.80;63.63;96694.56;4963756;28;20458;-69
2023/10/28 10:07:16;;;;;;;6.23;2.40;;;14.10;74.40;;;13.99;63.72;96697.56;4959944;28;20494;-68
2023/10/28 10:09:44;;;;;;;2.47;1.50;;;14.40;74.20;;;14.19;62.83;96691.34;4944595;28;20935;-70
2023/10/28 10:12:13;;;;;;;2.67;1.23;;;14.60;74.00;;;13.87;64.10;96701.34;4958541;28;21316;-69
2023/10/28 10:14:45;;;;;;;2.67;1.53;;;14.50;73.90;;;14.37;63.30;96691.88;4967362;28;20489;-69
2023/10/28 10:17:23;;;;;;;5.17;1.30;;;14.60;74.20;;;14.67;61.63;96696.50;4964363;28;20480;-69
2023/10/28 10:19:50;;;;;;;3.97;1.63;;;14.90;73.80;;;14.74;61.82;96685.38;4952056;28;20523;-69
2023/10/28 10:22:22;;;;;;;2.07;1.17;;;15.00;73.40;;;14.52;62.04;96688.34;4949816;28;20453;-69
2023/10/28 10:24:50;;;;;;;3.33;1.63;;;15.00;73.00;;;14.44;62.64;96690.53;4954055;28;20971;-69
2023/10/28 10:27:34;;;;;;;4.90;1.90;;;15.10;73.10;;;14.80;61.89;96689.69;4956656;28;20947;-70
2023/10/28 10:30:07;;;;;;;5.10;1.87;;;15.10;73.10;;;14.40;62.41;96689.44;4976914;28;20459;-69